createdAt,value
2023-11-16T00:05:06.928Z,538.85
2023-11-16T00:12:08.851Z,537.15
2023-11-16T00:19:10.654Z,535.45
2023-11-16T00:26:12.698Z,533.55
2023-11-16T00:33:23.117Z,538.83
2023-11-16T00:40:25.248Z,535.75
2023-11-16T00:47:28.259Z,537.45
2023-11-16T00:54:30.079Z,537.55
2023-11-16T01:01:33.310Z,541.15
2023-11-16T01:08:37.786Z,536.58
2023-11-16T01:15:39.981Z,535.38
2023-11-16T01:22:47.175Z,536.25
2023-11-16T01:29:48.929Z,532.47
2023-11-16T01:36:52.921Z,534.90
2023-11-16T01:43:54.975Z,536.88
2023-11-16T01:50:57.515Z,539.13
2023-11-16T01:57:59.934Z,541.00
2023-11-16T02:05:03.771Z,540.97
2023-11-16T02:12:06.155Z,541.58
2023-11-16T02:19:31.546Z,544.95
2023-11-16T02:26:34.436Z,540.47
2023-11-16T02:33:36.629Z,542.85
2023-11-16T02:40:40.252Z,537.90
2023-11-16T02:47:42.041Z,541.78
2023-11-16T02:54:43.951Z,546.90
2023-11-16T03:01:46.012Z,547.33
2023-11-16T03:08:48.691Z,545.25
2023-11-16T03:15:50.453Z,545.78
2023-11-16T03:22:52.215Z,549.28
2023-11-16T03:29:59.315Z,545.72
2023-11-16T03:37:03.652Z,552.47
2023-11-16T03:44:05.485Z,550.03
2023-11-16T03:51:07.570Z,552.10
2023-11-16T03:58:09.359Z,552.30
2023-11-16T04:05:11.100Z,556.00
2023-11-16T04:12:13.001Z,552.10
2023-11-16T04:19:14.899Z,549.78
2023-11-16T04:26:18.164Z,553.00
2023-11-16T04:33:21.710Z,543.63
2023-11-16T04:40:26.753Z,548.47
2023-11-16T04:47:28.563Z,551.30
2023-11-16T04:54:30.412Z,549.92
2023-11-16T05:01:32.462Z,555.50
2023-11-16T05:08:34.242Z,545.47
2023-11-16T05:15:36.473Z,548.78
2023-11-16T05:22:39.023Z,549.17
2023-11-16T05:29:40.741Z,547.53
2023-11-16T05:36:42.566Z,540.35
2023-11-16T05:43:44.469Z,539.95
2023-11-16T05:50:47.888Z,540.17
2023-11-16T05:57:49.885Z,538.80
2023-11-16T06:04:51.781Z,539.50
2023-11-16T06:11:53.844Z,544.38
2023-11-16T06:18:57.451Z,538.47
2023-11-16T06:25:59.226Z,536.40
2023-11-16T06:33:01.116Z,539.40
2023-11-16T06:40:03.308Z,538.70
2023-11-16T06:47:05.472Z,542.33
2023-11-16T06:54:07.326Z,541.42
2023-11-16T07:01:09.253Z,543.38
2023-11-16T07:08:10.975Z,541.63
2023-11-16T07:15:13.689Z,546.22
2023-11-16T07:22:15.690Z,542.38
2023-11-16T07:29:19.202Z,544.17
2023-11-16T07:36:27.690Z,543.67
2023-11-16T07:43:29.481Z,542.15
2023-11-16T07:50:33.299Z,544.35
2023-11-16T07:57:38.162Z,544.17
2023-11-16T08:04:40.544Z,547.10
2023-11-16T08:11:43.818Z,544.65
2023-11-16T08:18:45.963Z,540.97
2023-11-16T08:25:51.754Z,540.78
2023-11-16T08:32:54.160Z,537.42
2023-11-16T08:39:56.494Z,537.85
2023-11-16T08:47:05.041Z,539.05
2023-11-16T08:54:08.889Z,536.65
2023-11-16T09:01:11.843Z,541.38
2023-11-16T09:08:14.705Z,539.85
2023-11-16T09:15:17.512Z,540.42
2023-11-16T09:22:19.315Z,542.03
2023-11-16T09:29:21.159Z,538.50
2023-11-16T09:36:23.060Z,541.45
2023-11-16T09:43:26.325Z,545.13
2023-11-16T09:50:29.180Z,547.83
2023-11-16T09:57:35.003Z,551.03
2023-11-16T10:04:43.165Z,559.92
2023-11-16T10:11:45.072Z,558.65
2023-11-16T10:18:50.290Z,560.97
2023-11-16T10:25:52.513Z,558.95
2023-11-16T10:32:54.323Z,555.42
2023-11-16T10:39:56.725Z,551.65
2023-11-16T10:46:59.228Z,557.95
2023-11-16T10:54:01.110Z,552.97
2023-11-16T11:01:03.486Z,553.58
2023-11-16T11:08:09.998Z,555.42
2023-11-16T11:15:15.737Z,552.65
2023-11-16T11:22:17.524Z,547.97
2023-11-16T11:29:24.637Z,549.30
2023-11-16T11:36:26.946Z,547.03
2023-11-16T11:43:29.017Z,551.63
2023-11-16T11:50:35.868Z,549.70
2023-11-16T11:57:40.168Z,551.17
2023-11-16T12:04:42.429Z,555.33
2023-11-16T12:11:44.538Z,556.45
2023-11-16T12:18:49.552Z,555.20
2023-11-16T12:25:51.407Z,552.38
2023-11-16T12:32:53.809Z,551.47
2023-11-16T12:39:56.913Z,552.10
2023-11-16T12:46:59.281Z,553.33
2023-11-16T12:54:01.265Z,556.33
2023-11-16T13:01:03.080Z,555.67
2023-11-16T13:08:05.123Z,554.10
2023-11-16T13:15:08.106Z,557.17
2023-11-16T13:22:09.906Z,554.28
2023-11-16T13:29:13.997Z,550.50
2023-11-16T13:36:15.936Z,550.05
2023-11-16T13:43:19.001Z,554.28
2023-11-16T13:50:21.489Z,549.80
2023-11-16T13:57:23.378Z,549.45
2023-11-16T14:04:25.191Z,547.38
2023-11-16T14:11:27.031Z,548.05
2023-11-16T14:18:29.608Z,546.53
2023-11-16T14:25:37.016Z,543.13
2023-11-16T14:32:44.141Z,541.95
2023-11-16T14:39:46.138Z,547.40
2023-11-16T14:46:48.088Z,544.75
2023-11-16T14:53:54.926Z,544.17
2023-11-16T15:01:01.565Z,538.35
2023-11-16T15:08:04.173Z,542.92
2023-11-16T15:15:06.476Z,541.25
2023-11-16T15:22:09.429Z,538.05
2023-11-16T15:29:11.766Z,539.50
2023-11-16T15:36:13.534Z,540.40
2023-11-16T15:43:16.370Z,536.25
2023-11-16T15:50:18.218Z,537.78
2023-11-16T15:57:20.514Z,536.30
2023-11-16T16:04:22.894Z,535.97
2023-11-16T16:11:25.696Z,527.20
2023-11-16T16:18:28.507Z,536.75
2023-11-16T16:25:30.360Z,536.38
2023-11-16T16:32:32.400Z,535.40
2023-11-16T16:39:36.236Z,531.72
2023-11-16T16:46:42.176Z,530.53
2023-11-16T16:53:46.762Z,532.40
2023-11-16T17:00:49.942Z,530.80
2023-11-16T17:07:51.918Z,528.20
2023-11-16T17:14:54.039Z,532.65
2023-11-16T17:21:56.603Z,531.65
2023-11-16T17:28:59.777Z,530.38
2023-11-16T17:36:05.770Z,531.30
2023-11-16T17:43:10.758Z,529.15
2023-11-16T17:50:12.570Z,533.00
2023-11-16T17:57:16.446Z,532.38
2023-11-16T18:04:18.384Z,532.58
2023-11-16T18:11:20.310Z,530.00
2023-11-16T18:18:22.710Z,525.83
2023-11-16T18:25:26.739Z,527.13
2023-11-16T18:32:28.629Z,529.85
2023-11-16T18:39:33.051Z,521.45
2023-11-16T18:46:37.425Z,523.60
2023-11-16T18:53:39.379Z,516.08
2023-11-16T19:00:41.259Z,521.47
2023-11-16T19:07:43.208Z,513.95
2023-11-16T19:14:45.189Z,523.88
2023-11-16T19:21:47.240Z,522.58
2023-11-16T19:28:50.132Z,523.95
2023-11-16T19:35:52.713Z,523.40
2023-11-16T19:42:55.329Z,526.22
2023-11-16T19:49:57.713Z,522.03
2023-11-16T19:56:59.682Z,526.25
2023-11-16T20:04:01.895Z,532.63
2023-11-16T20:11:12.711Z,517.53
2023-11-16T20:18:14.605Z,519.35
2023-11-16T20:25:18.778Z,523.60
2023-11-16T20:32:20.859Z,514.70
2023-11-16T20:39:22.631Z,508.63
2023-11-16T20:46:24.408Z,477.65
2023-11-16T20:53:26.346Z,478.02
2023-11-16T21:00:28.123Z,481.42
2023-11-16T21:07:30.048Z,477.25
2023-11-16T21:14:31.874Z,473.48
2023-11-16T21:21:33.664Z,472.08
2023-11-16T21:28:35.608Z,474.83
2023-11-16T21:35:37.830Z,476.50
2023-11-16T21:42:40.434Z,480.50
2023-11-16T21:49:42.472Z,474.45
2023-11-16T21:56:44.198Z,474.13
2023-11-16T22:03:46.725Z,472.25
2023-11-16T22:10:48.691Z,457.50
2023-11-16T22:17:51.595Z,457.92
2023-11-16T22:24:53.789Z,456.27
2023-11-16T22:31:55.623Z,454.75
2023-11-16T22:38:57.505Z,451.45
2023-11-16T22:45:59.608Z,450.63
2023-11-16T22:53:01.360Z,449.90
2023-11-16T23:00:10.609Z,439.85
2023-11-16T23:07:14.559Z,441.05
2023-11-16T23:14:17.104Z,443.70
2023-11-16T23:21:30.269Z,445.42
2023-11-16T23:28:39.531Z,445.63
2023-11-16T23:35:41.453Z,438.23
2023-11-16T23:42:43.381Z,438.00
2023-11-16T23:49:45.728Z,437.33
2023-11-16T23:56:47.994Z,443.63
